Terminal Aerodrome Forecast
Issued by NWS

Home | Current Version | Previous Version | Text Only | Print | Product List | Glossary On
Versions: 1 2 3 4 5 6 7 8 9 10 11 12 13 14 15 16 17
000
FTUS41 KPBZ 011100
TAFZZV
TAF
KZZV 011132Z 0112/0212 VRB03KT 4SM BR SKC
     FM011400 VRB03KT P6SM SCT100
     FM012100 18004KT P6SM VCTS BKN050CB
     FM020200 15004KT P6SM BKN050
     FM020800 00000KT 3SM BR BKN035=

USA.gov is the U.S. government's official web portal to all federal, state and local government web resources and services.